createdAt,value
2023-03-05T00:01:08.047Z,70.41
2023-03-05T00:03:34.634Z,70.00
2023-03-05T00:06:01.303Z,70.45
2023-03-05T00:08:29.600Z,70.47
2023-03-05T00:10:59.868Z,70.59
2023-03-05T00:13:26.941Z,70.64
2023-03-05T00:15:53.954Z,70.78
2023-03-05T00:18:21.680Z,70.32
2023-03-05T00:20:48.323Z,70.23
2023-03-05T00:23:14.984Z,69.93
2023-03-05T00:25:41.500Z,70.64
2023-03-05T00:28:08.791Z,71.48
2023-03-05T00:30:35.992Z,70.81
2023-03-05T00:33:02.880Z,71.05
2023-03-05T00:35:29.524Z,71.42
2023-03-05T00:37:56.352Z,70.65
2023-03-05T00:40:24.543Z,70.59
2023-03-05T00:42:51.049Z,70.96
2023-03-05T00:45:17.983Z,70.58
2023-03-05T00:47:44.794Z,71.51
2023-03-05T00:50:12.004Z,70.85
2023-03-05T00:52:39.163Z,71.25
2023-03-05T00:55:06.334Z,71.00
2023-03-05T00:57:33.058Z,71.49
2023-03-05T00:59:59.697Z,71.61
2023-03-05T01:02:26.289Z,71.24
2023-03-05T01:04:52.833Z,71.20
2023-03-05T01:07:19.388Z,71.19
2023-03-05T01:09:45.909Z,71.08
2023-03-05T01:12:12.658Z,71.27
2023-03-05T01:14:39.155Z,71.19
2023-03-05T01:17:05.937Z,71.23
2023-03-05T01:19:32.547Z,71.51
2023-03-05T01:21:59.436Z,71.74
2023-03-05T01:24:26.540Z,71.56
2023-03-05T01:26:53.108Z,72.53
2023-03-05T01:29:19.640Z,72.34
2023-03-05T01:31:46.241Z,72.32
2023-03-05T01:34:13.798Z,72.52
2023-03-05T01:36:44.087Z,72.65
2023-03-05T01:39:10.782Z,72.52
2023-03-05T01:41:37.385Z,72.78
2023-03-05T01:44:04.256Z,72.28
2023-03-05T01:46:39.790Z,72.74
2023-03-05T01:49:17.696Z,73.43
2023-03-05T01:52:08.052Z,73.75
2023-03-05T01:54:39.135Z,73.24
2023-03-05T01:57:12.638Z,73.49
2023-03-05T01:59:41.570Z,72.08
2023-03-05T02:02:09.436Z,72.34
2023-03-05T02:04:45.044Z,73.12
2023-03-05T02:07:12.836Z,72.70
2023-03-05T02:09:40.817Z,72.84
2023-03-05T02:12:09.231Z,72.97
2023-03-05T02:14:36.490Z,72.69
2023-03-05T02:17:03.110Z,72.87
2023-03-05T02:19:30.095Z,73.00
2023-03-05T02:21:56.684Z,72.95
2023-03-05T02:24:36.332Z,73.33
2023-03-05T02:27:04.936Z,73.17
2023-03-05T02:29:33.055Z,73.11
2023-03-05T02:32:01.257Z,74.08
2023-03-05T02:34:28.011Z,72.71
2023-03-05T02:36:55.784Z,73.35
2023-03-05T02:39:22.566Z,72.97
2023-03-05T02:41:49.158Z,73.52
2023-03-05T02:44:15.799Z,73.87
2023-03-05T02:46:42.440Z,73.51
2023-03-05T02:49:09.004Z,73.52
2023-03-05T02:51:35.660Z,73.39
2023-03-05T02:54:02.180Z,73.67
2023-03-05T02:56:28.818Z,73.56
2023-03-05T02:58:55.662Z,73.70
2023-03-05T03:01:22.200Z,73.50
2023-03-05T03:03:48.846Z,73.26
2023-03-05T03:06:15.512Z,73.60
2023-03-05T03:08:42.112Z,73.75
2023-03-05T03:11:11.288Z,73.33
2023-03-05T03:13:38.358Z,73.39
2023-03-05T03:16:11.610Z,74.40
2023-03-05T03:18:38.952Z,73.04
2023-03-05T03:21:06.481Z,73.29
2023-03-05T03:23:33.917Z,73.32
2023-03-05T03:26:00.542Z,73.79
2023-03-05T03:28:27.086Z,73.95
2023-03-05T03:30:53.840Z,74.18
2023-03-05T03:33:20.626Z,74.40
2023-03-05T03:35:47.332Z,74.16
2023-03-05T03:38:14.012Z,74.07
2023-03-05T03:40:42.191Z,74.17
2023-03-05T03:43:09.086Z,73.98
2023-03-05T03:45:35.875Z,73.92
2023-03-05T03:48:02.700Z,73.89
2023-03-05T03:50:29.357Z,73.78
2023-03-05T03:52:55.999Z,74.06
2023-03-05T03:55:22.794Z,74.24
2023-03-05T03:57:49.326Z,74.17
2023-03-05T04:00:16.529Z,74.52
2023-03-05T04:02:43.341Z,74.48
2023-03-05T04:05:10.440Z,74.45
2023-03-05T04:07:37.158Z,74.97
2023-03-05T04:10:04.216Z,74.41
2023-03-05T04:12:30.789Z,74.88
2023-03-05T04:14:57.486Z,74.92
2023-03-05T04:17:24.293Z,75.01
2023-03-05T04:19:51.004Z,74.90
2023-03-05T04:22:18.168Z,75.09
2023-03-05T04:24:44.801Z,75.03
2023-03-05T04:27:13.061Z,75.52
2023-03-05T04:29:39.799Z,76.08
2023-03-05T04:32:07.057Z,75.96
2023-03-05T04:34:34.225Z,75.62
2023-03-05T04:37:01.007Z,75.63
2023-03-05T04:39:27.594Z,77.92
2023-03-05T04:41:54.216Z,76.19
2023-03-05T04:44:23.309Z,75.79
2023-03-05T04:46:50.094Z,75.69
2023-03-05T04:49:16.705Z,76.47
2023-03-05T04:51:43.402Z,76.57
2023-03-05T04:54:09.986Z,76.10
2023-03-05T04:56:36.595Z,76.43
2023-03-05T04:59:03.378Z,76.27
2023-03-05T05:01:30.341Z,76.15
2023-03-05T05:03:56.950Z,75.98
2023-03-05T05:06:23.586Z,76.60
2023-03-05T05:08:50.254Z,76.65
2023-03-05T05:11:16.758Z,76.52
2023-03-05T05:13:43.455Z,76.71
2023-03-05T05:16:10.261Z,76.25
2023-03-05T05:18:37.013Z,76.53
2023-03-05T05:21:08.460Z,76.86
2023-03-05T05:23:35.538Z,76.53
2023-03-05T05:26:04.794Z,76.44
2023-03-05T05:28:31.557Z,76.85
2023-03-05T05:30:58.525Z,76.36
2023-03-05T05:33:25.643Z,77.40
2023-03-05T05:35:52.456Z,77.01
2023-03-05T05:38:19.429Z,76.97
2023-03-05T05:40:46.029Z,77.67
2023-03-05T05:43:12.593Z,77.12
2023-03-05T05:45:39.352Z,76.85
2023-03-05T05:48:06.098Z,77.19
2023-03-05T05:50:32.668Z,77.37
2023-03-05T05:52:59.153Z,77.20
2023-03-05T05:55:25.804Z,77.02
2023-03-05T05:57:52.364Z,77.13
2023-03-05T06:00:19.431Z,76.89
2023-03-05T06:02:46.069Z,77.85
2023-03-05T06:05:14.948Z,77.66
2023-03-05T06:07:41.818Z,78.65
2023-03-05T06:10:09.911Z,78.04
2023-03-05T06:12:36.626Z,77.89
2023-03-05T06:15:03.354Z,78.42
2023-03-05T06:17:31.008Z,78.07
2023-03-05T06:19:58.803Z,77.72
2023-03-05T06:22:25.926Z,77.75
2023-03-05T06:24:52.839Z,77.94
2023-03-05T06:27:19.437Z,78.30
2023-03-05T06:29:46.080Z,78.90
2023-03-05T06:32:12.881Z,78.49
2023-03-05T06:34:39.589Z,78.42
2023-03-05T06:37:06.190Z,78.50
2023-03-05T06:39:33.229Z,78.82
2023-03-05T06:41:59.757Z,79.45
2023-03-05T06:44:26.684Z,78.70
2023-03-05T06:46:53.216Z,78.62
2023-03-05T06:49:19.794Z,78.50
2023-03-05T06:51:46.388Z,78.45
2023-03-05T06:54:15.665Z,78.17
2023-03-05T06:56:45.215Z,78.53
2023-03-05T06:59:13.281Z,78.73
2023-03-05T07:01:39.959Z,78.63
2023-03-05T07:04:07.161Z,78.56
2023-03-05T07:06:36.138Z,78.75
2023-03-05T07:09:03.862Z,79.59
2023-03-05T07:11:30.824Z,79.54
2023-03-05T07:13:57.375Z,79.40
2023-03-05T07:16:29.291Z,79.96
2023-03-05T07:18:57.591Z,79.29
2023-03-05T07:21:28.503Z,79.40
2023-03-05T07:23:56.925Z,79.68
2023-03-05T07:26:24.137Z,80.13
2023-03-05T07:28:51.205Z,80.42
2023-03-05T07:31:20.694Z,80.33
2023-03-05T07:33:48.772Z,80.50
2023-03-05T07:36:16.608Z,80.73
2023-03-05T07:38:43.904Z,81.34
2023-03-05T07:41:13.563Z,81.95
2023-03-05T07:43:40.825Z,82.37
2023-03-05T07:46:09.669Z,83.14
2023-03-05T07:48:36.507Z,83.68
2023-03-05T07:51:05.737Z,84.53
2023-03-05T07:53:32.410Z,85.06
2023-03-05T07:55:59.113Z,85.43
2023-03-05T07:58:25.869Z,85.55
2023-03-05T08:00:52.532Z,86.50
2023-03-05T08:03:22.667Z,86.36
2023-03-05T08:05:49.289Z,85.00
2023-03-05T08:08:16.734Z,86.38
2023-03-05T08:10:43.612Z,85.74
2023-03-05T08:13:10.500Z,86.34
2023-03-05T08:15:38.062Z,86.75
2023-03-05T08:18:04.863Z,86.46
2023-03-05T08:20:34.877Z,85.86
2023-03-05T08:23:01.881Z,85.45
2023-03-05T08:25:28.536Z,86.43
2023-03-05T08:27:55.143Z,85.90
2023-03-05T08:30:22.723Z,85.65
2023-03-05T08:32:50.174Z,86.54
2023-03-05T08:35:16.711Z,86.39
2023-03-05T08:37:43.464Z,86.87
2023-03-05T08:40:10.832Z,83.33
2023-03-05T08:42:37.448Z,85.94
2023-03-05T08:45:04.135Z,85.86
2023-03-05T08:47:30.868Z,85.02
2023-03-05T08:49:58.447Z,84.90
2023-03-05T08:52:26.963Z,84.35
2023-03-05T08:54:53.956Z,82.83
2023-03-05T08:57:20.628Z,84.50
2023-03-05T08:59:47.515Z,84.64
2023-03-05T09:02:14.331Z,84.60
2023-03-05T09:04:41.232Z,81.26
2023-03-05T09:07:08.006Z,83.76
2023-03-05T09:09:34.695Z,83.02
2023-03-05T09:12:01.939Z,78.03
2023-03-05T09:14:28.776Z,82.66
2023-03-05T09:16:56.688Z,82.91
2023-03-05T09:19:23.511Z,82.67
2023-03-05T09:21:50.286Z,82.06
2023-03-05T09:24:17.184Z,82.15
2023-03-05T09:26:44.255Z,80.69
2023-03-05T09:29:11.272Z,81.43
2023-03-05T09:31:38.378Z,80.98
2023-03-05T09:34:06.362Z,80.14
2023-03-05T09:36:33.345Z,78.71
2023-03-05T09:38:59.949Z,79.79
2023-03-05T09:41:57.472Z,75.53
2023-03-05T09:44:45.225Z,75.70
2023-03-05T09:47:30.361Z,78.65
2023-03-05T09:50:12.811Z,78.14
2023-03-05T09:52:52.868Z,78.45
2023-03-05T09:55:27.628Z,77.73
2023-03-05T09:57:59.114Z,77.77
2023-03-05T10:00:54.426Z,78.91
2023-03-05T10:03:45.750Z,75.60
2023-03-05T10:06:32.684Z,76.01
2023-03-05T10:09:11.569Z,77.30
2023-03-05T10:11:38.066Z,76.85
2023-03-05T10:14:07.053Z,74.58
2023-03-05T10:17:11.005Z,75.96
2023-03-05T10:19:58.833Z,75.44
2023-03-05T10:22:32.475Z,76.08
2023-03-05T10:25:20.424Z,75.17
2023-03-05T10:27:54.465Z,74.88
2023-03-05T10:30:32.957Z,74.40
2023-03-05T10:33:20.211Z,73.53
2023-03-05T10:36:15.238Z,73.62
2023-03-05T10:38:53.722Z,72.36
2023-03-05T10:41:32.277Z,68.26
2023-03-05T10:44:06.317Z,72.54
2023-03-05T10:46:36.697Z,72.82
2023-03-05T10:49:16.022Z,69.96
2023-03-05T10:52:09.269Z,71.34
2023-03-05T10:54:37.628Z,71.67
2023-03-05T10:57:04.154Z,68.88
2023-03-05T10:59:31.800Z,68.24
2023-03-05T11:02:05.197Z,68.83
2023-03-05T11:04:37.129Z,68.50
2023-03-05T11:07:16.106Z,68.17
2023-03-05T11:10:05.156Z,65.46
2023-03-05T11:12:34.297Z,67.51
2023-03-05T11:15:09.925Z,63.97
2023-03-05T11:17:39.260Z,66.79
2023-03-05T11:20:27.446Z,67.05
2023-03-05T11:23:28.535Z,66.58
2023-03-05T11:25:59.484Z,63.01
2023-03-05T11:28:35.692Z,65.78
2023-03-05T11:31:10.252Z,63.81
2023-03-05T11:33:37.695Z,63.98
2023-03-05T11:36:21.243Z,63.43
2023-03-05T11:38:55.731Z,62.78
2023-03-05T11:41:34.168Z,63.64
2023-03-05T11:44:04.555Z,63.91
2023-03-05T11:46:38.383Z,62.62
2023-03-05T11:49:06.680Z,63.09
2023-03-05T11:51:46.285Z,62.64
2023-03-05T11:54:21.280Z,63.66
2023-03-05T11:56:48.043Z,60.60
2023-03-05T11:59:27.703Z,60.72
2023-03-05T12:01:56.657Z,59.30
2023-03-05T12:04:24.153Z,59.98
2023-03-05T12:06:52.355Z,60.09
2023-03-05T12:09:41.065Z,58.59
2023-03-05T12:12:44.602Z,59.64
2023-03-05T12:15:49.565Z,60.24
2023-03-05T12:18:28.678Z,58.52
2023-03-05T12:21:07.102Z,58.91
2023-03-05T12:23:55.691Z,59.37
2023-03-05T12:26:57.393Z,59.19
2023-03-05T12:29:40.737Z,59.67
2023-03-05T12:32:35.384Z,59.32
2023-03-05T12:35:04.481Z,59.33
2023-03-05T12:37:31.252Z,57.60
2023-03-05T12:40:05.876Z,57.73
2023-03-05T12:42:32.388Z,58.30
2023-03-05T12:45:17.296Z,57.85
2023-03-05T12:47:56.756Z,58.35
2023-03-05T12:50:29.422Z,57.67
2023-03-05T12:53:04.714Z,58.16
2023-03-05T12:55:48.582Z,58.19
2023-03-05T12:58:31.220Z,57.79
2023-03-05T13:01:04.344Z,57.76
2023-03-05T13:03:36.104Z,57.26
2023-03-05T13:06:08.290Z,58.11
2023-03-05T13:08:37.311Z,57.60
2023-03-05T13:11:08.171Z,57.44
2023-03-05T13:13:43.724Z,55.52
2023-03-05T13:16:29.261Z,57.19
2023-03-05T13:18:59.536Z,56.42
2023-03-05T13:21:29.743Z,57.18
2023-03-05T13:23:59.081Z,57.65
2023-03-05T13:26:40.425Z,57.81
2023-03-05T13:29:18.316Z,57.11
2023-03-05T13:31:47.752Z,57.51
2023-03-05T13:34:19.035Z,54.78
2023-03-05T13:36:56.897Z,55.85
2023-03-05T13:39:27.507Z,56.26
2023-03-05T13:42:01.239Z,56.71
2023-03-05T13:44:29.564Z,55.30
2023-03-05T13:47:08.010Z,55.73
2023-03-05T13:49:34.751Z,55.41
2023-03-05T13:52:01.714Z,56.69
2023-03-05T13:54:29.735Z,57.27
2023-03-05T13:57:00.746Z,56.49
2023-03-05T13:59:31.581Z,56.90
2023-03-05T14:02:00.552Z,56.28
2023-03-05T14:04:36.685Z,57.09
2023-03-05T14:07:16.711Z,56.71
2023-03-05T14:09:47.679Z,57.26
2023-03-05T14:12:30.327Z,56.33
2023-03-05T14:14:58.721Z,55.84
2023-03-05T14:17:45.126Z,56.92
2023-03-05T14:20:11.619Z,56.52
2023-03-05T14:22:40.422Z,56.34
2023-03-05T14:25:33.769Z,56.56
2023-03-05T14:28:26.174Z,56.51
2023-03-05T14:30:55.767Z,55.27
2023-03-05T14:33:28.508Z,55.18
2023-03-05T14:35:57.740Z,56.06
2023-03-05T14:38:28.937Z,54.63
2023-03-05T14:40:57.448Z,55.01
2023-03-05T14:43:24.065Z,54.92
2023-03-05T14:45:50.568Z,55.34
2023-03-05T14:48:18.853Z,56.09
2023-03-05T14:50:57.021Z,55.92
2023-03-05T14:53:35.460Z,56.23
2023-03-05T14:56:02.485Z,56.48
2023-03-05T14:58:32.740Z,57.78
2023-03-05T15:00:59.805Z,57.72
2023-03-05T15:03:28.109Z,57.86
2023-03-05T15:05:58.265Z,58.17
2023-03-05T15:08:30.275Z,57.66
2023-03-05T15:10:57.197Z,58.41
2023-03-05T15:13:23.954Z,58.01
2023-03-05T15:15:52.427Z,58.17
2023-03-05T15:18:20.659Z,58.09
2023-03-05T15:20:53.090Z,58.02
2023-03-05T15:23:20.390Z,58.13
2023-03-05T15:25:47.559Z,57.78
2023-03-05T15:28:14.769Z,57.57
2023-03-05T15:30:45.403Z,58.30
2023-03-05T15:33:16.262Z,57.85
2023-03-05T15:35:43.612Z,57.87
2023-03-05T15:38:10.433Z,58.34
2023-03-05T15:40:37.116Z,58.25
2023-03-05T15:43:08.288Z,58.02
2023-03-05T15:45:35.005Z,58.04
2023-03-05T15:48:01.922Z,58.30
2023-03-05T15:50:28.748Z,57.91
2023-03-05T15:52:55.762Z,58.20
2023-03-05T15:55:22.690Z,58.17
2023-03-05T15:57:51.407Z,58.25
2023-03-05T16:00:24.856Z,58.53
2023-03-05T16:02:52.570Z,58.60
2023-03-05T16:05:19.182Z,58.99
2023-03-05T16:07:49.108Z,58.70
2023-03-05T16:10:22.232Z,58.75
2023-03-05T16:12:53.119Z,59.01
2023-03-05T16:15:21.664Z,59.00
2023-03-05T16:17:52.611Z,58.94
2023-03-05T16:20:19.605Z,59.22
2023-03-05T16:22:46.562Z,59.20
2023-03-05T16:25:13.313Z,59.38
2023-03-05T16:27:39.938Z,59.07
2023-03-05T16:30:07.209Z,59.41
2023-03-05T16:32:33.934Z,59.37
2023-03-05T16:35:00.585Z,59.96
2023-03-05T16:37:27.175Z,60.81
2023-03-05T16:39:59.194Z,60.91
2023-03-05T16:42:25.848Z,60.78
2023-03-05T16:44:52.435Z,61.12
2023-03-05T16:47:19.169Z,61.20
2023-03-05T16:49:45.891Z,61.75
2023-03-05T16:52:18.868Z,61.65
2023-03-05T16:54:47.102Z,62.08
2023-03-05T16:57:13.989Z,62.04
2023-03-05T16:59:43.708Z,62.13
2023-03-05T17:02:12.770Z,61.85
2023-03-05T17:04:39.515Z,62.58
2023-03-05T17:07:06.352Z,62.29
2023-03-05T17:09:33.413Z,62.29
2023-03-05T17:12:00.125Z,62.18
2023-03-05T17:14:26.962Z,61.33
2023-03-05T17:16:53.877Z,61.42
2023-03-05T17:19:20.603Z,61.63
2023-03-05T17:21:50.751Z,61.23
2023-03-05T17:24:17.632Z,61.40
2023-03-05T17:26:46.343Z,61.43
2023-03-05T17:29:13.268Z,61.09
2023-03-05T17:31:40.546Z,61.18
2023-03-05T17:34:07.220Z,61.21
2023-03-05T17:36:33.845Z,60.77
2023-03-05T17:39:00.463Z,61.12
2023-03-05T17:41:27.339Z,61.01
2023-03-05T17:43:53.847Z,61.12
2023-03-05T17:46:20.818Z,60.86
2023-03-05T17:48:47.449Z,60.99
2023-03-05T17:51:16.750Z,61.19
2023-03-05T17:53:44.223Z,60.99
2023-03-05T17:56:13.465Z,61.04
2023-03-05T17:58:40.950Z,61.15
2023-03-05T18:01:08.737Z,61.24
2023-03-05T18:03:36.794Z,61.62
2023-03-05T18:06:05.147Z,61.52
2023-03-05T18:08:32.147Z,61.25
2023-03-05T18:10:58.871Z,61.62
2023-03-05T18:13:25.493Z,61.73
2023-03-05T18:15:52.049Z,61.90
2023-03-05T18:18:18.815Z,61.77
2023-03-05T18:20:46.009Z,62.32
2023-03-05T18:23:12.974Z,62.35
2023-03-05T18:25:39.831Z,62.55
2023-03-05T18:28:09.348Z,62.79
2023-03-05T18:30:36.216Z,62.91
2023-03-05T18:33:03.260Z,63.08
2023-03-05T18:35:30.158Z,63.00
2023-03-05T18:37:57.624Z,62.99
2023-03-05T18:40:27.731Z,63.35
2023-03-05T18:42:55.019Z,63.24
2023-03-05T18:45:22.740Z,63.35
2023-03-05T18:47:53.899Z,63.48
2023-03-05T18:50:22.822Z,63.71
2023-03-05T18:52:49.767Z,63.74
2023-03-05T18:55:22.881Z,64.47
2023-03-05T18:57:49.660Z,64.09
2023-03-05T19:00:17.935Z,64.19
2023-03-05T19:02:44.587Z,64.40
2023-03-05T19:05:13.452Z,64.37
2023-03-05T19:07:40.079Z,64.67
2023-03-05T19:10:10.061Z,64.24
2023-03-05T19:12:45.519Z,64.58
2023-03-05T19:15:13.753Z,64.18
2023-03-05T19:17:41.059Z,64.60
2023-03-05T19:20:10.421Z,64.58
2023-03-05T19:22:37.000Z,64.36
2023-03-05T19:25:04.003Z,64.47
2023-03-05T19:27:30.741Z,64.34
2023-03-05T19:29:58.109Z,64.47
2023-03-05T19:32:25.075Z,64.71
2023-03-05T19:34:56.359Z,64.57
2023-03-05T19:37:23.267Z,64.78
2023-03-05T19:39:49.909Z,65.23
2023-03-05T19:42:16.931Z,64.60
2023-03-05T19:44:43.680Z,64.60
2023-03-05T19:47:10.269Z,64.95
2023-03-05T19:49:37.147Z,64.52
2023-03-05T19:52:06.113Z,64.77
2023-03-05T19:54:33.033Z,64.79
2023-03-05T19:57:00.167Z,64.86
2023-03-05T19:59:26.759Z,64.93
2023-03-05T20:01:53.454Z,65.38
2023-03-05T20:04:24.999Z,65.12
2023-03-05T20:06:51.519Z,65.05
2023-03-05T20:09:18.041Z,65.27
2023-03-05T20:11:44.770Z,65.14
2023-03-05T20:14:14.582Z,65.10
2023-03-05T20:16:43.261Z,65.42
2023-03-05T20:19:16.373Z,65.50
2023-03-05T20:21:43.994Z,65.49
2023-03-05T20:24:13.724Z,65.44
2023-03-05T20:26:41.645Z,65.49
2023-03-05T20:29:09.055Z,65.23
2023-03-05T20:31:37.311Z,65.24
2023-03-05T20:34:10.203Z,65.96
2023-03-05T20:36:36.860Z,65.97
2023-03-05T20:39:05.898Z,66.00
2023-03-05T20:41:34.642Z,65.91
2023-03-05T20:44:01.363Z,66.02
2023-03-05T20:46:33.330Z,66.20
2023-03-05T20:49:02.249Z,66.06
2023-03-05T20:51:36.445Z,66.06
2023-03-05T20:54:07.122Z,65.93
2023-03-05T20:56:35.171Z,66.37
2023-03-05T20:59:04.687Z,66.33
2023-03-05T21:01:33.309Z,66.13
2023-03-05T21:04:01.086Z,66.31
2023-03-05T21:06:29.842Z,65.68
2023-03-05T21:08:57.743Z,65.03
2023-03-05T21:11:24.987Z,65.43
2023-03-05T21:13:51.785Z,64.65
2023-03-05T21:16:22.624Z,64.94
2023-03-05T21:18:50.844Z,63.98
2023-03-05T21:21:18.776Z,64.53
2023-03-05T21:23:45.721Z,63.67
2023-03-05T21:26:13.476Z,64.05
2023-03-05T21:28:40.896Z,63.81
2023-03-05T21:31:11.126Z,63.47
2023-03-05T21:33:38.025Z,63.94
2023-03-05T21:36:05.297Z,63.83
2023-03-05T21:38:34.044Z,63.47
2023-03-05T21:41:02.565Z,63.89
2023-03-05T21:43:31.241Z,64.16
2023-03-05T21:45:59.735Z,63.87
2023-03-05T21:48:26.632Z,64.10
2023-03-05T21:50:54.887Z,64.79
2023-03-05T21:53:21.650Z,64.63
2023-03-05T21:56:03.334Z,65.10
2023-03-05T21:58:34.345Z,64.56
2023-03-05T22:01:01.316Z,64.32
2023-03-05T22:03:28.474Z,64.22
2023-03-05T22:05:55.967Z,64.57
2023-03-05T22:08:22.906Z,65.08
2023-03-05T22:10:49.757Z,65.23
2023-03-05T22:13:17.999Z,65.14
2023-03-05T22:15:52.407Z,64.92
2023-03-05T22:18:24.335Z,65.40
2023-03-05T22:20:51.882Z,66.64
2023-03-05T22:23:19.693Z,65.24
2023-03-05T22:25:46.253Z,66.41
2023-03-05T22:28:13.392Z,66.59
2023-03-05T22:30:45.081Z,65.99
2023-03-05T22:33:12.327Z,64.44
2023-03-05T22:35:42.616Z,64.26
2023-03-05T22:38:10.990Z,63.83
2023-03-05T22:40:41.352Z,65.40
2023-03-05T22:43:08.054Z,63.50
2023-03-05T22:45:34.571Z,63.93
2023-03-05T22:48:01.247Z,63.86
2023-03-05T22:50:28.273Z,64.98
2023-03-05T22:52:55.105Z,64.56
2023-03-05T22:55:21.731Z,65.43
2023-03-05T22:57:49.421Z,65.35
2023-03-05T23:00:23.585Z,66.20
2023-03-05T23:02:51.409Z,64.81
2023-03-05T23:05:18.696Z,64.52
2023-03-05T23:07:45.783Z,65.26
2023-03-05T23:10:13.921Z,65.83
2023-03-05T23:12:44.560Z,66.03
2023-03-05T23:15:14.322Z,65.53
2023-03-05T23:17:41.129Z,65.42
2023-03-05T23:20:10.344Z,65.58
2023-03-05T23:22:38.176Z,67.13
2023-03-05T23:25:05.266Z,66.63
2023-03-05T23:27:31.954Z,65.72
2023-03-05T23:30:17.355Z,65.81
2023-03-05T23:32:49.728Z,65.50
2023-03-05T23:35:25.134Z,66.11
2023-03-05T23:37:53.438Z,66.49
2023-03-05T23:40:24.402Z,67.70
2023-03-05T23:42:51.332Z,67.42
2023-03-05T23:45:20.527Z,67.94
2023-03-05T23:47:55.171Z,66.74
2023-03-05T23:50:27.925Z,68.37
2023-03-05T23:52:54.794Z,67.42
2023-03-05T23:55:25.060Z,66.19
2023-03-05T23:57:52.661Z,66.95
